sensor_id;sensor_type;location;lat;lon;timestamp;temperature;humidity
11454;DHT22;5783;55.174;61.310;2022-09-13T00:01:24;19.90;51.00
11454;DHT22;5783;55.174;61.310;2022-09-13T00:03:53;19.90;51.10
11454;DHT22;5783;55.174;61.310;2022-09-13T00:06:22;20.00;50.90
11454;DHT22;5783;55.174;61.310;2022-09-13T00:08:51;19.90;50.90
11454;DHT22;5783;55.174;61.310;2022-09-13T00:11:40;19.90;50.70
11454;DHT22;5783;55.174;61.310;2022-09-13T00:14:09;19.90;50.70
11454;DHT22;5783;55.174;61.310;2022-09-13T00:16:38;19.90;50.90
11454;DHT22;5783;55.174;61.310;2022-09-13T00:19:08;19.90;50.90
11454;DHT22;5783;55.174;61.310;2022-09-13T00:21:37;19.90;50.50
11454;DHT22;5783;55.174;61.310;2022-09-13T00:24:06;19.80;51.10
11454;DHT22;5783;55.174;61.310;2022-09-13T00:26:36;19.80;51.20
11454;DHT22;5783;55.174;61.310;2022-09-13T00:29:05;19.80;51.30
11454;DHT22;5783;55.174;61.310;2022-09-13T00:31:34;19.80;51.30
11454;DHT22;5783;55.174;61.310;2022-09-13T00:34:03;19.90;51.50
11454;DHT22;5783;55.174;61.310;2022-09-13T00:36:32;19.80;51.40
11454;DHT22;5783;55.174;61.310;2022-09-13T00:39:01;19.80;51.50
11454;DHT22;5783;55.174;61.310;2022-09-13T00:41:30;19.90;51.40
11454;DHT22;5783;55.174;61.310;2022-09-13T00:44:00;19.90;51.30
11454;DHT22;5783;55.174;61.310;2022-09-13T00:46:50;19.90;51.30
11454;DHT22;5783;55.174;61.310;2022-09-13T00:49:56;19.80;51.20
11454;DHT22;5783;55.174;61.310;2022-09-13T00:51:55;19.80;51.30
11454;DHT22;5783;55.174;61.310;2022-09-13T00:54:28;19.80;51.40
11454;DHT22;5783;55.174;61.310;2022-09-13T00:56:58;19.80;51.30
11454;DHT22;5783;55.174;61.310;2022-09-13T01:02:59;19.80;51.20
11454;DHT22;5783;55.174;61.310;2022-09-13T01:05:32;19.80;51.10
11454;DHT22;5783;55.174;61.310;2022-09-13T01:08:02;19.70;51.20
11454;DHT22;5783;55.174;61.310;2022-09-13T01:10:33;19.70;51.30
11454;DHT22;5783;55.174;61.310;2022-09-13T01:13:08;19.70;51.30
11454;DHT22;5783;55.174;61.310;2022-09-13T01:15:38;19.70;51.30
11454;DHT22;5783;55.174;61.310;2022-09-13T01:18:08;19.80;51.40
11454;DHT22;5783;55.174;61.310;2022-09-13T02:03:06;19.60;51.90
11454;DHT22;5783;55.174;61.310;2022-09-13T02:12:13;19.60;51.50
11454;DHT22;5783;55.174;61.310;2022-09-13T02:14:45;19.50;51.60
11454;DHT22;5783;55.174;61.310;2022-09-13T02:17:49;19.50;51.60
11454;DHT22;5783;55.174;61.310;2022-09-13T02:22:40;19.50;51.50
11454;DHT22;5783;55.174;61.310;2022-09-13T02:25:12;19.60;51.40
11454;DHT22;5783;55.174;61.310;2022-09-13T02:27:44;19.60;51.40
11454;DHT22;5783;55.174;61.310;2022-09-13T02:30:14;19.60;51.40
11454;DHT22;5783;55.174;61.310;2022-09-13T02:33:36;19.70;51.40
11454;DHT22;5783;55.174;61.310;2022-09-13T02:35:37;19.70;51.30
11454;DHT22;5783;55.174;61.310;2022-09-13T02:43:50;19.70;51.30
11454;DHT22;5783;55.174;61.310;2022-09-13T02:46:42;19.70;51.70
11454;DHT22;5783;55.174;61.310;2022-09-13T02:55:29;19.60;51.80
11454;DHT22;5783;55.174;61.310;2022-09-13T03:01:06;19.70;51.90
11454;DHT22;5783;55.174;61.310;2022-09-13T03:03:35;19.70;51.90
11454;DHT22;5783;55.174;61.310;2022-09-13T03:06:04;19.70;51.80
11454;DHT22;5783;55.174;61.310;2022-09-13T03:08:34;19.70;51.80
11454;DHT22;5783;55.174;61.310;2022-09-13T03:17:45;19.70;51.30
11454;DHT22;5783;55.174;61.310;2022-09-13T03:35:36;19.60;51.00
11454;DHT22;5783;55.174;61.310;2022-09-13T03:41:18;19.60;51.10
11454;DHT22;5783;55.174;61.310;2022-09-13T03:43:49;19.60;51.10
11454;DHT22;5783;55.174;61.310;2022-09-13T03:46:40;19.70;51.10
11454;DHT22;5783;55.174;61.310;2022-09-13T03:49:44;19.70;51.10
11454;DHT22;5783;55.174;61.310;2022-09-13T03:52:02;19.80;51.10
11454;DHT22;5783;55.174;61.310;2022-09-13T03:54:31;19.80;51.20
11454;DHT22;5783;55.174;61.310;2022-09-13T03:57:23;19.80;51.00
11454;DHT22;5783;55.174;61.310;2022-09-13T03:59:55;19.80;51.20
11454;DHT22;5783;55.174;61.310;2022-09-13T04:02:26;19.80;51.70
11454;DHT22;5783;55.174;61.310;2022-09-13T04:04:55;19.80;51.20
11454;DHT22;5783;55.174;61.310;2022-09-13T04:07:24;19.80;51.20
11454;DHT22;5783;55.174;61.310;2022-09-13T04:09:54;19.80;51.20
11454;DHT22;5783;55.174;61.310;2022-09-13T04:12:23;19.90;51.30
11454;DHT22;5783;55.174;61.310;2022-09-13T04:14:53;19.90;51.10
11454;DHT22;5783;55.174;61.310;2022-09-13T04:17:22;19.90;51.10
11454;DHT22;5783;55.174;61.310;2022-09-13T04:19:51;19.90;51.10
11454;DHT22;5783;55.174;61.310;2022-09-13T04:22:20;19.90;51.00
11454;DHT22;5783;55.174;61.310;2022-09-13T04:24:51;20.00;51.10
11454;DHT22;5783;55.174;61.310;2022-09-13T04:27:20;20.00;51.10
11454;DHT22;5783;55.174;61.310;2022-09-13T04:29:49;20.00;51.20
11454;DHT22;5783;55.174;61.310;2022-09-13T04:32:18;20.00;51.20
11454;DHT22;5783;55.174;61.310;2022-09-13T04:34:47;20.00;51.20
11454;DHT22;5783;55.174;61.310;2022-09-13T04:37:16;20.00;51.20
11454;DHT22;5783;55.174;61.310;2022-09-13T04:39:46;20.00;51.20
11454;DHT22;5783;55.174;61.310;2022-09-13T04:42:15;19.90;51.10
11454;DHT22;5783;55.174;61.310;2022-09-13T04:44:45;19.80;51.60
11454;DHT22;5783;55.174;61.310;2022-09-13T04:47:15;19.70;51.50
11454;DHT22;5783;55.174;61.310;2022-09-13T04:49:45;19.70;51.50
11454;DHT22;5783;55.174;61.310;2022-09-13T04:52:14;19.70;51.60
11454;DHT22;5783;55.174;61.310;2022-09-13T04:54:43;19.70;51.40
11454;DHT22;5783;55.174;61.310;2022-09-13T04:57:14;19.70;51.40
11454;DHT22;5783;55.174;61.310;2022-09-13T04:59:43;19.70;51.40
11454;DHT22;5783;55.174;61.310;2022-09-13T05:02:12;19.80;51.40
11454;DHT22;5783;55.174;61.310;2022-09-13T05:04:41;19.80;51.50
11454;DHT22;5783;55.174;61.310;2022-09-13T05:07:11;19.90;51.10
11454;DHT22;5783;55.174;61.310;2022-09-13T05:09:40;20.10;50.40
11454;DHT22;5783;55.174;61.310;2022-09-13T05:12:09;20.20;50.00
11454;DHT22;5783;55.174;61.310;2022-09-13T05:14:38;20.30;49.70
11454;DHT22;5783;55.174;61.310;2022-09-13T05:17:07;20.30;49.40
11454;DHT22;5783;55.174;61.310;2022-09-13T05:19:37;20.40;49.10
11454;DHT22;5783;55.174;61.310;2022-09-13T05:22:06;20.40;49.00
11454;DHT22;5783;55.174;61.310;2022-09-13T05:24:35;20.50;49.20
11454;DHT22;5783;55.174;61.310;2022-09-13T05:27:04;20.50;48.90
11454;DHT22;5783;55.174;61.310;2022-09-13T05:29:34;20.50;48.80
11454;DHT22;5783;55.174;61.310;2022-09-13T05:32:03;20.50;48.70
11454;DHT22;5783;55.174;61.310;2022-09-13T05:34:32;20.50;48.60
11454;DHT22;5783;55.174;61.310;2022-09-13T05:37:01;20.50;48.50
11454;DHT22;5783;55.174;61.310;2022-09-13T05:39:31;20.50;48.80
11454;DHT22;5783;55.174;61.310;2022-09-13T05:42:01;20.50;48.80
11454;DHT22;5783;55.174;61.310;2022-09-13T05:44:30;20.50;48.70
11454;DHT22;5783;55.174;61.310;2022-09-13T05:47:00;20.50;48.10
11454;DHT22;5783;55.174;61.310;2022-09-13T05:49:29;20.50;48.00
11454;DHT22;5783;55.174;61.310;2022-09-13T05:51:58;20.50;48.20
11454;DHT22;5783;55.174;61.310;2022-09-13T05:54:27;20.50;48.20
11454;DHT22;5783;55.174;61.310;2022-09-13T05:56:56;20.50;48.20
11454;DHT22;5783;55.174;61.310;2022-09-13T05:59:25;20.50;48.10
11454;DHT22;5783;55.174;61.310;2022-09-13T06:01:54;20.50;47.80
11454;DHT22;5783;55.174;61.310;2022-09-13T06:04:23;20.50;47.70
11454;DHT22;5783;55.174;61.310;2022-09-13T06:06:53;20.50;47.70
11454;DHT22;5783;55.174;61.310;2022-09-13T06:09:22;20.50;47.70
11454;DHT22;5783;55.174;61.310;2022-09-13T06:11:51;20.50;48.10
11454;DHT22;5783;55.174;61.310;2022-09-13T06:14:20;20.50;47.90
11454;DHT22;5783;55.174;61.310;2022-09-13T06:16:49;20.50;47.90
11454;DHT22;5783;55.174;61.310;2022-09-13T06:21:49;20.60;47.60
11454;DHT22;5783;55.174;61.310;2022-09-13T06:24:18;20.60;47.60
11454;DHT22;5783;55.174;61.310;2022-09-13T06:26:49;20.60;47.80
11454;DHT22;5783;55.174;61.310;2022-09-13T06:29:18;20.60;47.50
11454;DHT22;5783;55.174;61.310;2022-09-13T06:31:47;20.60;47.70
11454;DHT22;5783;55.174;61.310;2022-09-13T06:34:16;20.60;47.70
11454;DHT22;5783;55.174;61.310;2022-09-13T06:36:45;20.70;47.70
11454;DHT22;5783;55.174;61.310;2022-09-13T06:39:14;20.70;47.60
11454;DHT22;5783;55.174;61.310;2022-09-13T06:41:43;20.70;48.00
11454;DHT22;5783;55.174;61.310;2022-09-13T06:44:12;20.70;48.00
11454;DHT22;5783;55.174;61.310;2022-09-13T06:46:42;20.70;48.00
11454;DHT22;5783;55.174;61.310;2022-09-13T06:49:11;20.70;47.80
11454;DHT22;5783;55.174;61.310;2022-09-13T06:51:40;20.70;47.90
11454;DHT22;5783;55.174;61.310;2022-09-13T06:54:09;20.60;47.80
11454;DHT22;5783;55.174;61.310;2022-09-13T06:56:38;20.60;47.80
11454;DHT22;5783;55.174;61.310;2022-09-13T06:59:08;20.60;48.10
11454;DHT22;5783;55.174;61.310;2022-09-13T07:01:57;20.60;48.40
11454;DHT22;5783;55.174;61.310;2022-09-13T07:07:36;20.60;48.60
11454;DHT22;5783;55.174;61.310;2022-09-13T07:10:07;20.60;48.70
11454;DHT22;5783;55.174;61.310;2022-09-13T07:12:41;20.60;48.50
11454;DHT22;5783;55.174;61.310;2022-09-13T07:15:10;20.60;48.40
11454;DHT22;5783;55.174;61.310;2022-09-13T07:17:41;20.60;48.20
11454;DHT22;5783;55.174;61.310;2022-09-13T07:20:10;20.70;48.60
11454;DHT22;5783;55.174;61.310;2022-09-13T07:22:39;20.70;48.60
11454;DHT22;5783;55.174;61.310;2022-09-13T07:27:41;20.80;48.30
11454;DHT22;5783;55.174;61.310;2022-09-13T07:30:11;20.80;48.30
11454;DHT22;5783;55.174;61.310;2022-09-13T07:32:40;20.80;48.00
11454;DHT22;5783;55.174;61.310;2022-09-13T07:35:09;20.80;48.10
11454;DHT22;5783;55.174;61.310;2022-09-13T07:37:38;20.80;47.90
11454;DHT22;5783;55.174;61.310;2022-09-13T07:40:08;20.80;47.70
11454;DHT22;5783;55.174;61.310;2022-09-13T07:42:39;20.70;47.40
11454;DHT22;5783;55.174;61.310;2022-09-13T07:45:09;20.70;47.60
11454;DHT22;5783;55.174;61.310;2022-09-13T07:47:38;20.70;47.80
11454;DHT22;5783;55.174;61.310;2022-09-13T07:50:08;20.70;47.70
11454;DHT22;5783;55.174;61.310;2022-09-13T07:52:38;20.80;47.80
11454;DHT22;5783;55.174;61.310;2022-09-13T07:55:07;20.80;47.60
11454;DHT22;5783;55.174;61.310;2022-09-13T07:57:38;20.70;47.50
11454;DHT22;5783;55.174;61.310;2022-09-13T08:00:08;20.70;47.40
11454;DHT22;5783;55.174;61.310;2022-09-13T08:09:15;20.70;47.50
11454;DHT22;5783;55.174;61.310;2022-09-13T08:14:07;20.70;47.30
11454;DHT22;5783;55.174;61.310;2022-09-13T08:16:39;20.70;47.00
11454;DHT22;5783;55.174;61.310;2022-09-13T08:21:59;20.70;47.20
11454;DHT22;5783;55.174;61.310;2022-09-13T08:24:28;20.80;47.30
11454;DHT22;5783;55.174;61.310;2022-09-13T08:26:57;20.80;47.10
11454;DHT22;5783;55.174;61.310;2022-09-13T08:29:27;20.80;46.80
11454;DHT22;5783;55.174;61.310;2022-09-13T08:31:56;20.80;46.70
11454;DHT22;5783;55.174;61.310;2022-09-13T08:34:25;20.80;46.70
11454;DHT22;5783;55.174;61.310;2022-09-13T08:36:54;20.80;46.50
11454;DHT22;5783;55.174;61.310;2022-09-13T08:39:24;20.80;46.60
11454;DHT22;5783;55.174;61.310;2022-09-13T08:41:58;20.90;46.40
11454;DHT22;5783;55.174;61.310;2022-09-13T08:44:46;20.80;46.20
11454;DHT22;5783;55.174;61.310;2022-09-13T08:50:44;20.80;46.10
11454;DHT22;5783;55.174;61.310;2022-09-13T08:53:38;20.80;46.00
11454;DHT22;5783;55.174;61.310;2022-09-13T08:59:50;20.80;45.60
11454;DHT22;5783;55.174;61.310;2022-09-13T09:02:09;20.70;45.10
11454;DHT22;5783;55.174;61.310;2022-09-13T09:04:38;20.70;45.10
11454;DHT22;5783;55.174;61.310;2022-09-13T09:07:28;20.60;44.90
11454;DHT22;5783;55.174;61.310;2022-09-13T09:18:53;20.70;45.50
11454;DHT22;5783;55.174;61.310;2022-09-13T09:21:26;20.70;45.70
11454;DHT22;5783;55.174;61.310;2022-09-13T09:23:55;20.70;46.20
11454;DHT22;5783;55.174;61.310;2022-09-13T09:26:28;20.70;45.90
11454;DHT22;5783;55.174;61.310;2022-09-13T09:28:59;20.80;45.80
11454;DHT22;5783;55.174;61.310;2022-09-13T09:40:36;20.90;45.80
11454;DHT22;5783;55.174;61.310;2022-09-13T09:43:31;20.80;45.90
11454;DHT22;5783;55.174;61.310;2022-09-13T09:45:57;20.90;45.60
11454;DHT22;5783;55.174;61.310;2022-09-13T09:48:32;20.90;45.50
11454;DHT22;5783;55.174;61.310;2022-09-13T09:51:02;20.90;45.30
11454;DHT22;5783;55.174;61.310;2022-09-13T09:59:35;21.00;45.00
11454;DHT22;5783;55.174;61.310;2022-09-13T10:04:58;21.10;44.50
11454;DHT22;5783;55.174;61.310;2022-09-13T10:13:29;21.10;44.20
11454;DHT22;5783;55.174;61.310;2022-09-13T10:19:26;21.10;44.40
11454;DHT22;5783;55.174;61.310;2022-09-13T10:22:15;21.10;44.60
11454;DHT22;5783;55.174;61.310;2022-09-13T10:24:44;21.20;44.50
11454;DHT22;5783;55.174;61.310;2022-09-13T10:27:49;21.20;44.40
11454;DHT22;5783;55.174;61.310;2022-09-13T10:29:50;21.30;44.40
11454;DHT22;5783;55.174;61.310;2022-09-13T10:32:22;21.40;44.10
11454;DHT22;5783;55.174;61.310;2022-09-13T10:34:52;21.40;44.30
11454;DHT22;5783;55.174;61.310;2022-09-13T10:37:25;21.50;44.40
11454;DHT22;5783;55.174;61.310;2022-09-13T10:43:11;21.60;50.90
11454;DHT22;5783;55.174;61.310;2022-09-13T10:45:37;21.60;52.60
11454;DHT22;5783;55.174;61.310;2022-09-13T10:51:19;21.70;46.60
11454;DHT22;5783;55.174;61.310;2022-09-13T10:53:47;21.80;46.40
11454;DHT22;5783;55.174;61.310;2022-09-13T10:56:36;21.80;49.80
11454;DHT22;5783;55.174;61.310;2022-09-13T10:59:25;21.80;52.30
11454;DHT22;5783;55.174;61.310;2022-09-13T11:33:08;21.90;45.80
11454;DHT22;5783;55.174;61.310;2022-09-13T11:51:22;22.00;45.00
11454;DHT22;5783;55.174;61.310;2022-09-13T11:57:39;21.90;43.90
11454;DHT22;5783;55.174;61.310;2022-09-13T12:01:03;21.90;44.10
11454;DHT22;5783;55.174;61.310;2022-09-13T12:14:23;21.80;43.70
11454;DHT22;5783;55.174;61.310;2022-09-13T12:22:54;21.70;44.00
11454;DHT22;5783;55.174;61.310;2022-09-13T12:25:30;21.70;44.00
11454;DHT22;5783;55.174;61.310;2022-09-13T12:31:26;21.70;44.00
11454;DHT22;5783;55.174;61.310;2022-09-13T12:33:56;21.70;43.90
11454;DHT22;5783;55.174;61.310;2022-09-13T12:46:34;21.50;44.40
11454;DHT22;5783;55.174;61.310;2022-09-13T13:03:15;21.40;45.00
11454;DHT22;5783;55.174;61.310;2022-09-13T13:05:48;21.40;45.80
11454;DHT22;5783;55.174;61.310;2022-09-13T13:08:37;21.40;45.30
11454;DHT22;5783;55.174;61.310;2022-09-13T13:11:28;21.40;46.20
11454;DHT22;5783;55.174;61.310;2022-09-13T13:13:59;21.40;46.30
11454;DHT22;5783;55.174;61.310;2022-09-13T13:16:32;21.40;45.00
11454;DHT22;5783;55.174;61.310;2022-09-13T13:19:04;21.40;45.60
11454;DHT22;5783;55.174;61.310;2022-09-13T13:21:36;21.40;45.20
11454;DHT22;5783;55.174;61.310;2022-09-13T13:26:57;21.40;46.00
11454;DHT22;5783;55.174;61.310;2022-09-13T13:29:29;21.30;46.20
11454;DHT22;5783;55.174;61.310;2022-09-13T13:34:52;21.30;46.30
11454;DHT22;5783;55.174;61.310;2022-09-13T13:48:43;21.20;46.50
11454;DHT22;5783;55.174;61.310;2022-09-13T13:51:14;21.20;46.60
11454;DHT22;5783;55.174;61.310;2022-09-13T13:56:54;21.10;47.30
11454;DHT22;5783;55.174;61.310;2022-09-13T13:59:26;21.10;47.60
11454;DHT22;5783;55.174;61.310;2022-09-13T14:01:57;21.00;47.60
11454;DHT22;5783;55.174;61.310;2022-09-13T14:22:27;20.90;47.00
11454;DHT22;5783;55.174;61.310;2022-09-13T14:25:12;20.80;47.10
11454;DHT22;5783;55.174;61.310;2022-09-13T14:27:33;20.80;47.30
11454;DHT22;5783;55.174;61.310;2022-09-13T14:30:39;20.80;46.90
11454;DHT22;5783;55.174;61.310;2022-09-13T14:32:56;20.80;46.60
11454;DHT22;5783;55.174;61.310;2022-09-13T14:36:01;20.80;46.70
11454;DHT22;5783;55.174;61.310;2022-09-13T14:38:20;20.80;46.80
11454;DHT22;5783;55.174;61.310;2022-09-13T14:41:11;20.80;47.10
11454;DHT22;5783;55.174;61.310;2022-09-13T14:43:42;20.80;47.30
11454;DHT22;5783;55.174;61.310;2022-09-13T14:46:33;20.80;47.30
11454;DHT22;5783;55.174;61.310;2022-09-13T14:49:06;20.80;47.20
11454;DHT22;5783;55.174;61.310;2022-09-13T14:51:55;20.80;46.90
11454;DHT22;5783;55.174;61.310;2022-09-13T14:56:58;20.70;47.30
11454;DHT22;5783;55.174;61.310;2022-09-13T14:59:31;20.60;46.10
11454;DHT22;5783;55.174;61.310;2022-09-13T15:02:21;20.60;45.80
11454;DHT22;5783;55.174;61.310;2022-09-13T15:04:53;20.70;46.00
11454;DHT22;5783;55.174;61.310;2022-09-13T15:10:33;20.60;46.20
11454;DHT22;5783;55.174;61.310;2022-09-13T15:15:56;20.60;46.40
11454;DHT22;5783;55.174;61.310;2022-09-13T15:21:16;20.60;46.80
11454;DHT22;5783;55.174;61.310;2022-09-13T15:24:13;20.50;46.90
11454;DHT22;5783;55.174;61.310;2022-09-13T15:26:36;20.50;46.80
11454;DHT22;5783;55.174;61.310;2022-09-13T15:29:12;20.60;47.00
11454;DHT22;5783;55.174;61.310;2022-09-13T15:31:37;20.60;47.30
11454;DHT22;5783;55.174;61.310;2022-09-13T15:34:26;20.60;47.20
11454;DHT22;5783;55.174;61.310;2022-09-13T15:37:14;20.60;47.30
11454;DHT22;5783;55.174;61.310;2022-09-13T15:40:19;20.70;47.30
11454;DHT22;5783;55.174;61.310;2022-09-13T15:42:19;20.60;47.40
11454;DHT22;5783;55.174;61.310;2022-09-13T15:44:48;20.70;47.50
11454;DHT22;5783;55.174;61.310;2022-09-13T15:47:18;20.70;47.60
11454;DHT22;5783;55.174;61.310;2022-09-13T15:49:49;20.70;47.50
11454;DHT22;5783;55.174;61.310;2022-09-13T15:52:19;20.80;47.50
11454;DHT22;5783;55.174;61.310;2022-09-13T15:54:50;20.80;47.50
11454;DHT22;5783;55.174;61.310;2022-09-13T16:00:30;20.70;47.60
11454;DHT22;5783;55.174;61.310;2022-09-13T16:05:30;20.70;47.80
11454;DHT22;5783;55.174;61.310;2022-09-13T16:08:02;20.70;48.00
11454;DHT22;5783;55.174;61.310;2022-09-13T16:13:04;20.70;48.10
11454;DHT22;5783;55.174;61.310;2022-09-13T16:15:33;20.70;48.10
11454;DHT22;5783;55.174;61.310;2022-09-13T16:18:02;20.70;48.40
11454;DHT22;5783;55.174;61.310;2022-09-13T16:20:32;20.70;48.30
11454;DHT22;5783;55.174;61.310;2022-09-13T16:23:01;20.70;48.30
11454;DHT22;5783;55.174;61.310;2022-09-13T16:25:30;20.60;48.40
11454;DHT22;5783;55.174;61.310;2022-09-13T16:28:00;20.60;48.50
11454;DHT22;5783;55.174;61.310;2022-09-13T16:30:30;20.60;48.80
11454;DHT22;5783;55.174;61.310;2022-09-13T16:32:59;20.60;48.70
11454;DHT22;5783;55.174;61.310;2022-09-13T16:35:31;20.60;48.90
11454;DHT22;5783;55.174;61.310;2022-09-13T16:38:01;20.60;48.80
11454;DHT22;5783;55.174;61.310;2022-09-13T16:40:30;20.60;48.90
11454;DHT22;5783;55.174;61.310;2022-09-13T16:42:59;20.60;48.80
11454;DHT22;5783;55.174;61.310;2022-09-13T16:45:28;20.60;48.90
11454;DHT22;5783;55.174;61.310;2022-09-13T16:47:57;20.60;48.90
11454;DHT22;5783;55.174;61.310;2022-09-13T16:50:26;20.60;49.00
11454;DHT22;5783;55.174;61.310;2022-09-13T16:52:56;20.70;49.00
11454;DHT22;5783;55.174;61.310;2022-09-13T16:55:25;20.70;49.00
11454;DHT22;5783;55.174;61.310;2022-09-13T16:57:54;20.70;49.00
11454;DHT22;5783;55.174;61.310;2022-09-13T17:00:23;20.60;49.10
11454;DHT22;5783;55.174;61.310;2022-09-13T17:02:55;20.70;49.10
11454;DHT22;5783;55.174;61.310;2022-09-13T17:05:25;20.60;49.10
11454;DHT22;5783;55.174;61.310;2022-09-13T17:07:54;20.60;49.10
11454;DHT22;5783;55.174;61.310;2022-09-13T17:10:24;20.60;48.50
11454;DHT22;5783;55.174;61.310;2022-09-13T17:15:25;20.60;49.00
11454;DHT22;5783;55.174;61.310;2022-09-13T17:17:55;20.60;49.00
11454;DHT22;5783;55.174;61.310;2022-09-13T17:20:26;20.60;49.00
11454;DHT22;5783;55.174;61.310;2022-09-13T17:22:55;20.60;49.00
11454;DHT22;5783;55.174;61.310;2022-09-13T17:25:24;20.60;49.00
11454;DHT22;5783;55.174;61.310;2022-09-13T17:27:53;20.60;49.00
11454;DHT22;5783;55.174;61.310;2022-09-13T17:30:22;20.60;49.00
11454;DHT22;5783;55.174;61.310;2022-09-13T17:32:51;20.60;49.10
11454;DHT22;5783;55.174;61.310;2022-09-13T17:35:20;20.60;49.20
11454;DHT22;5783;55.174;61.310;2022-09-13T17:37:49;20.60;49.00
11454;DHT22;5783;55.174;61.310;2022-09-13T17:40:19;20.60;48.90
11454;DHT22;5783;55.174;61.310;2022-09-13T17:42:48;20.60;49.10
11454;DHT22;5783;55.174;61.310;2022-09-13T17:45:17;20.60;49.10
11454;DHT22;5783;55.174;61.310;2022-09-13T17:50:38;20.60;49.00
11454;DHT22;5783;55.174;61.310;2022-09-13T17:53:07;20.60;48.90
11454;DHT22;5783;55.174;61.310;2022-09-13T17:55:58;20.60;49.00
11454;DHT22;5783;55.174;61.310;2022-09-13T17:58:27;20.60;49.00
11454;DHT22;5783;55.174;61.310;2022-09-13T18:01:16;20.60;48.80
11454;DHT22;5783;55.174;61.310;2022-09-13T18:03:45;20.60;48.80
11454;DHT22;5783;55.174;61.310;2022-09-13T18:06:14;20.60;49.00
11454;DHT22;5783;55.174;61.310;2022-09-13T18:08:43;20.60;49.20
11454;DHT22;5783;55.174;61.310;2022-09-13T18:11:14;20.60;49.00
11454;DHT22;5783;55.174;61.310;2022-09-13T18:13:45;20.60;48.70
11454;DHT22;5783;55.174;61.310;2022-09-13T18:19:05;20.60;48.70
11454;DHT22;5783;55.174;61.310;2022-09-13T18:21:38;20.60;48.60
11454;DHT22;5783;55.174;61.310;2022-09-13T18:24:10;20.60;48.50
11454;DHT22;5783;55.174;61.310;2022-09-13T18:26:39;20.60;48.80
11454;DHT22;5783;55.174;61.310;2022-09-13T18:29:28;20.60;48.80
11454;DHT22;5783;55.174;61.310;2022-09-13T18:31:58;20.60;48.70
11454;DHT22;5783;55.174;61.310;2022-09-13T18:34:27;20.60;48.70
11454;DHT22;5783;55.174;61.310;2022-09-13T18:36:56;20.60;48.80
11454;DHT22;5783;55.174;61.310;2022-09-13T18:39:25;20.60;48.80
11454;DHT22;5783;55.174;61.310;2022-09-13T18:41:55;20.60;48.80
11454;DHT22;5783;55.174;61.310;2022-09-13T18:44:26;20.50;48.60
11454;DHT22;5783;55.174;61.310;2022-09-13T18:46:56;20.60;48.70
11454;DHT22;5783;55.174;61.310;2022-09-13T18:49:26;20.50;48.70
11454;DHT22;5783;55.174;61.310;2022-09-13T18:51:55;20.50;48.70
11454;DHT22;5783;55.174;61.310;2022-09-13T18:54:24;20.50;48.80
11454;DHT22;5783;55.174;61.310;2022-09-13T18:56:53;20.50;48.70
11454;DHT22;5783;55.174;61.310;2022-09-13T18:59:23;20.50;48.80
11454;DHT22;5783;55.174;61.310;2022-09-13T19:01:53;20.60;48.80
11454;DHT22;5783;55.174;61.310;2022-09-13T19:04:23;20.60;48.70
11454;DHT22;5783;55.174;61.310;2022-09-13T19:06:53;20.60;48.70
11454;DHT22;5783;55.174;61.310;2022-09-13T19:09:23;20.50;48.60
11454;DHT22;5783;55.174;61.310;2022-09-13T19:11:53;20.50;48.70
11454;DHT22;5783;55.174;61.310;2022-09-13T19:14:25;20.50;48.70
11454;DHT22;5783;55.174;61.310;2022-09-13T19:16:57;20.50;48.80
11454;DHT22;5783;55.174;61.310;2022-09-13T19:19:27;20.50;48.80
11454;DHT22;5783;55.174;61.310;2022-09-13T19:21:57;20.50;48.90
11454;DHT22;5783;55.174;61.310;2022-09-13T19:24:46;20.40;48.90
11454;DHT22;5783;55.174;61.310;2022-09-13T19:27:17;20.40;49.00
11454;DHT22;5783;55.174;61.310;2022-09-13T19:29:46;20.40;49.10
11454;DHT22;5783;55.174;61.310;2022-09-13T19:32:15;20.40;49.30
11454;DHT22;5783;55.174;61.310;2022-09-13T19:34:44;20.40;49.30
11454;DHT22;5783;55.174;61.310;2022-09-13T19:37:13;20.40;49.50
11454;DHT22;5783;55.174;61.310;2022-09-13T19:39:42;20.40;49.60
11454;DHT22;5783;55.174;61.310;2022-09-13T19:42:15;20.40;49.50
11454;DHT22;5783;55.174;61.310;2022-09-13T19:44:44;20.40;49.70
11454;DHT22;5783;55.174;61.310;2022-09-13T19:47:13;20.40;49.70
11454;DHT22;5783;55.174;61.310;2022-09-13T19:49:42;20.40;49.70
11454;DHT22;5783;55.174;61.310;2022-09-13T19:52:11;20.40;49.70
11454;DHT22;5783;55.174;61.310;2022-09-13T19:54:40;20.40;49.70
11454;DHT22;5783;55.174;61.310;2022-09-13T19:57:09;20.40;49.70
11454;DHT22;5783;55.174;61.310;2022-09-13T19:59:38;20.40;49.90
11454;DHT22;5783;55.174;61.310;2022-09-13T20:02:09;20.40;49.90
11454;DHT22;5783;55.174;61.310;2022-09-13T20:04:38;20.30;49.80
11454;DHT22;5783;55.174;61.310;2022-09-13T20:07:07;20.40;49.90
11454;DHT22;5783;55.174;61.310;2022-09-13T20:09:38;20.30;49.80
11454;DHT22;5783;55.174;61.310;2022-09-13T20:15:20;20.30;49.80
11454;DHT22;5783;55.174;61.310;2022-09-13T20:17:51;20.30;50.00
11454;DHT22;5783;55.174;61.310;2022-09-13T20:20:20;20.30;49.80
11454;DHT22;5783;55.174;61.310;2022-09-13T20:22:50;20.20;49.60
11454;DHT22;5783;55.174;61.310;2022-09-13T20:25:21;20.30;49.60
11454;DHT22;5783;55.174;61.310;2022-09-13T20:27:50;20.30;49.60
11454;DHT22;5783;55.174;61.310;2022-09-13T20:30:19;20.30;49.70
11454;DHT22;5783;55.174;61.310;2022-09-13T20:32:51;20.20;49.60
11454;DHT22;5783;55.174;61.310;2022-09-13T20:35:20;20.30;49.70
11454;DHT22;5783;55.174;61.310;2022-09-13T20:37:49;20.30;49.60
11454;DHT22;5783;55.174;61.310;2022-09-13T20:40:19;20.30;49.60
11454;DHT22;5783;55.174;61.310;2022-09-13T20:42:49;20.30;49.50
11454;DHT22;5783;55.174;61.310;2022-09-13T20:45:18;20.30;49.50
11454;DHT22;5783;55.174;61.310;2022-09-13T20:47:47;20.30;49.50
11454;DHT22;5783;55.174;61.310;2022-09-13T20:50:16;20.30;49.40
11454;DHT22;5783;55.174;61.310;2022-09-13T20:52:46;20.30;49.50
11454;DHT22;5783;55.174;61.310;2022-09-13T20:55:15;20.30;49.50
11454;DHT22;5783;55.174;61.310;2022-09-13T20:57:45;20.30;49.50
11454;DHT22;5783;55.174;61.310;2022-09-13T21:00:14;20.30;49.60
11454;DHT22;5783;55.174;61.310;2022-09-13T21:02:43;20.30;49.40
11454;DHT22;5783;55.174;61.310;2022-09-13T21:05:12;20.30;49.50
11454;DHT22;5783;55.174;61.310;2022-09-13T21:07:41;20.30;49.40
11454;DHT22;5783;55.174;61.310;2022-09-13T21:10:30;20.30;49.40
11454;DHT22;5783;55.174;61.310;2022-09-13T21:12:59;20.30;49.30
11454;DHT22;5783;55.174;61.310;2022-09-13T21:15:29;20.30;49.30
11454;DHT22;5783;55.174;61.310;2022-09-13T21:17:58;20.30;49.10
11454;DHT22;5783;55.174;61.310;2022-09-13T21:20:27;20.20;49.00
11454;DHT22;5783;55.174;61.310;2022-09-13T21:22:56;20.20;48.90
11454;DHT22;5783;55.174;61.310;2022-09-13T21:25:26;20.20;48.80
11454;DHT22;5783;55.174;61.310;2022-09-13T21:27:55;20.20;48.80